Latest Weather Observations for Scoresby

IDV60901

Issued at 9:15 pm EST Wednesday 30 July 2014 (issued every 10 minutes, with the page automatically refreshed every 10 minutes)

About weather observations | Map of Melbourne area stations | Latest observations for Melbourne area | Other Formats
Station Details ID: 086104 Name: SCORESBY RESEARCH INSTITUTE Lat: -37.87 Lon: 145.26 Height: 80.0 m
Data from the previous 72 hours. | See also: Recent months at Scoresby
Date/Time
EST
Tmp

°C
App
Tmp
°C
Dew
Point
°C
Rel
Hum
%
Delta-T

°C
Wind Press
QNH
hPa
Press
MSL
hPa
Rain
since
9 am
mm
Dir
 
Spd
km/h
Gust
km/h
Spd
kts
Gust
kts
30/09:00pm 15.3 11.4 8.8 65 3.3 NNW 19 35 10 19 - - 0.0
30/08:30pm 15.2 11.4 9.1 67 3.1 N 19 32 10 17 - - 0.0
30/08:00pm 15.4 11.4 9.1 66 3.2 N 20 41 11 22 - - 0.0
30/07:30pm 15.6 12.2 9.3 66 3.3 N 17 37 9 20 - - 0.0
30/07:00pm 15.6 12.3 9.5 67 3.2 N 17 28 9 15 - - 0.0
30/06:30pm 15.4 12.2 10.0 70 2.8 N 17 30 9 16 - - 0.0
30/06:00pm 15.4 11.8 10.0 70 2.8 N 19 35 10 19 - - 0.0
30/05:30pm 15.3 12.5 9.9 70 2.8 N 15 26 8 14 - - 0.0
30/05:00pm 15.7 12.1 9.8 68 3.1 N 19 32 10 17 - - 0.0
30/04:30pm 15.8 13.4 9.9 68 3.1 N 13 24 7 13 - - 0.0
30/04:00pm 16.6 13.0 9.8 64 3.6 NNW 19 35 10 19 - - 0.0
30/03:30pm 16.5 13.3 10.1 66 3.4 NNW 17 30 9 16 - - 0.0
30/03:00pm 16.4 12.3 10.0 66 3.4 NNW 22 43 12 23 - - 0.0
30/02:30pm 16.6 12.5 10.0 65 3.5 N 22 44 12 24 - - 0.0
30/02:00pm 16.1 12.4 10.2 68 3.1 NNW 20 37 11 20 - - 0.0
30/01:30pm 16.3 13.2 10.4 68 3.1 N 17 33 9 18 - - 0.0
30/01:00pm 16.3 12.6 10.2 67 3.2 N 20 37 11 20 - - 0.0
30/12:30pm 16.5 13.2 9.7 64 3.6 N 17 30 9 16 - - 0.0
30/12:00pm 16.3 12.5 9.0 62 3.8 NNW 19 33 10 18 - - 0.0
30/11:30am 16.0 13.2 10.1 68 3.1 NNW 15 26 8 14 - - 0.0
30/11:00am 15.0 11.9 10.4 74 2.4 N 17 28 9 15 - - 0.0
30/10:30am 15.6 12.0 9.9 69 3.0 N 19 30 10 16 - - 0.0
30/10:00am 14.7 11.8 9.5 71 2.7 N 15 30 8 16 - - 0.0
30/09:30am 14.5 11.5 9.3 71 2.7 N 15 26 8 14 - - 0.0
30/09:00am 13.7 11.1 9.4 75 2.2 N 13 22 7 12 - - 3.0
30/08:30am 13.3 10.7 9.5 78 1.9 N 13 24 7 13 - - 3.0
30/08:00am 12.6 10.9 9.8 83 1.4 N 9 19 5 10 - - 3.0
30/07:30am 11.9 10.5 9.6 86 1.2 N 7 13 4 7 - - 3.0
30/07:00am 12.3 10.6 9.9 85 1.2 N 9 15 5 8 - - 3.0
30/06:30am 12.4 11.3 9.8 84 1.3 N 6 11 3 6 - - 3.0
30/06:00am 12.8 11.4 8.7 76 2.1 N 6 11 3 6 - - 3.0
30/05:30am 12.3 11.6 9.9 85 1.2 NW 4 7 2 4 - - 3.0
30/05:00am 13.7 12.3 9.4 75 2.2 NNW 7 15 4 8 - - 3.0
30/04:30am 13.4 12.1 9.8 79 1.9 N 7 13 4 7 - - 3.0
30/04:00am 13.5 11.8 9.9 79 1.9 N 9 24 5 13 - - 3.0
30/03:30am 13.7 12.0 9.9 78 2.0 N 9 17 5 9 - - 3.0
30/03:00am 13.6 11.2 10.2 80 1.8 N 13 22 7 12 - - 3.0
30/02:30am 13.4 11.9 10.6 83 1.5 N 9 20 5 11 - - 3.0
30/02:00am 13.7 11.4 10.3 80 1.8 NNW 13 28 7 15 - - 3.0
30/01:30am 13.3 12.2 10.5 83 1.5 NNW 7 19 4 10 - - 3.0
30/01:00am 13.5 10.1 10.5 82 1.6 W 19 35 10 19 - - 2.6
30/12:30am 14.3 11.5 10.1 76 2.2 NNW 15 33 8 18 - - 2.2
30/12:00am 13.6 11.3 10.6 82 1.6 NNW 13 22 7 12 - - 2.2
 
Date/Time
EST
Tmp

°C
App
Tmp
°C
Dew
Point
°C
Rel
Hum
%
Delta-T

°C
Wind Press
QNH
hPa
Press
MSL
hPa
Rain
since
9 am
mm
Dir
 
Spd
km/h
Gust
km/h
Spd
kts
Gust
kts
29/11:30pm 14.4 12.0 10.0 75 2.3 NNW 13 28 7 15 - - 1.6
29/11:00pm 14.1 11.4 10.5 79 1.9 N 15 32 8 17 - - 1.6
29/10:30pm 13.9 12.1 10.7 81 1.7 N 11 20 6 11 - - 1.6
29/10:00pm 13.3 11.2 11.2 87 1.1 N 13 24 7 13 - - 1.4
29/09:30pm 13.9 10.7 11.1 83 1.5 NNW 19 32 10 17 - - 1.2
29/09:00pm 14.2 11.6 10.8 80 1.8 NNW 15 30 8 16 - - 1.0
29/08:30pm 14.7 11.5 10.1 74 2.4 N 17 33 9 18 - - 1.0
29/08:00pm 15.0 11.8 9.8 71 2.7 N 17 28 9 15 - - 1.0
29/07:30pm 14.8 11.6 9.8 72 2.6 N 17 37 9 20 - - 1.0
29/07:00pm 14.9 11.3 9.7 71 2.7 N 19 32 10 17 - - 1.0
29/06:30pm 14.5 10.7 9.7 73 2.5 N 20 35 11 19 - - 1.0
29/06:00pm 13.9 10.2 10.1 78 2.0 N 20 35 11 19 - - 1.0
29/05:30pm 14.8 10.5 9.4 70 2.8 NNW 22 35 12 19 - - 0.2
29/05:00pm 13.8 10.6 9.8 77 2.1 N 17 32 9 17 - - 0.2
29/04:32pm 14.6 9.1 9.2 70 2.8 N 28 54 15 29 - - 0.0
29/04:30pm 14.6 9.5 9.2 70 2.8 N 26 54 14 29 - - 0.0
29/04:00pm 14.5 10.1 8.9 69 2.9 N 22 46 12 25 - - 0.0
29/03:30pm 14.4 10.3 8.8 69 2.8 N 20 41 11 22 - - 0.0
29/03:00pm 14.5 9.6 8.5 67 3.0 N 24 43 13 23 - - 0.0
29/02:30pm 14.4 8.7 8.4 67 3.0 N 28 54 15 29 - - 0.0
29/02:17pm 14.4 8.7 8.4 67 3.0 N 28 52 15 28 - - 0.0
29/02:00pm 14.5 9.5 8.2 66 3.2 N 24 50 13 27 - - 0.0
29/01:30pm 14.4 9.0 7.9 65 3.2 N 26 50 14 27 - - 0.0
29/01:06pm 14.1 8.2 7.6 65 3.2 N 28 50 15 27 - - 0.0
29/01:00pm 14.1 8.6 7.6 65 3.2 N 26 43 14 23 - - 0.0
29/12:30pm 14.0 9.2 7.5 65 3.2 N 22 44 12 24 - - 0.0
29/12:00pm 13.9 9.1 7.4 65 3.2 N 22 41 12 22 - - 0.0
29/11:30am 13.8 8.2 7.3 65 3.2 N 26 43 14 23 - - 0.0
29/11:00am 13.7 8.8 7.0 64 3.3 N 22 44 12 24 - - 0.0
29/10:30am 14.0 9.5 7.1 63 3.4 N 20 39 11 21 - - 0.0
29/10:00am 13.1 9.5 6.7 65 3.1 N 15 28 8 15 - - 0.0
29/09:30am 12.6 8.6 6.6 67 2.9 N 17 30 9 16 - - 0.0
29/09:00am 12.1 7.7 6.6 69 2.6 N 19 33 10 18 - - 0.0
29/08:30am 12.0 7.0 6.3 68 2.7 N 22 43 12 23 - - 0.0
29/08:00am 12.1 7.6 6.2 67 2.8 N 19 30 10 16 - - 0.0
29/07:30am 12.1 8.4 6.2 67 2.8 N 15 32 8 17 - - 0.0
29/07:00am 11.9 7.5 6.4 69 2.6 N 19 35 10 19 - - 0.0
29/06:30am 11.8 7.4 6.5 70 2.5 N 19 37 10 20 - - 0.0
29/06:00am 12.1 7.7 6.6 69 2.6 N 19 39 10 21 - - 0.0
29/05:30am 12.3 7.4 6.8 69 2.6 N 22 46 12 25 - - 0.0
29/05:00am 12.7 7.8 6.7 67 2.9 N 22 37 12 20 - - 0.0
29/04:30am 12.8 8.8 6.8 67 2.9 N 17 33 9 18 - - 0.0
29/04:00am 12.9 9.3 6.7 66 3.0 N 15 24 8 13 - - 0.0
29/03:30am 12.7 9.2 7.0 68 2.8 NNE 15 35 8 19 - - 0.0
29/03:00am 12.0 8.8 6.7 70 2.5 NNE 13 22 7 12 - - 0.0
29/02:30am 11.1 7.4 6.5 73 2.2 NNE 15 24 8 13 - - 0.0
29/02:00am 11.7 8.8 6.6 71 2.4 NNE 11 19 6 10 - - 0.0
29/01:30am 12.1 8.6 7.0 71 2.5 N 15 26 8 14 - - 0.0
29/01:00am 11.3 8.4 6.6 73 2.2 NNE 11 22 6 12 - - 0.0
29/12:30am 11.1 8.2 6.6 74 2.1 NNE 11 19 6 10 - - 0.0
29/12:00am 11.5 8.7 6.8 73 2.2 NNE 11 19 6 10 - - 0.0
 
Date/Time
EST
Tmp

°C
App
Tmp
°C
Dew
Point
°C
Rel
Hum
%
Delta-T

°C
Wind Press
QNH
hPa
Press
MSL
hPa
Rain
since
9 am
mm
Dir
 
Spd
km/h
Gust
km/h
Spd
kts
Gust
kts
28/11:30pm 11.7 8.8 6.6 71 2.4 NNE 11 17 6 9 - - 0.0
28/11:00pm 12.0 9.1 6.7 70 2.5 NNE 11 19 6 10 - - 0.0
28/10:30pm 11.9 9.4 6.6 70 2.5 NNE 9 19 5 10 - - 0.0
28/10:00pm 12.5 9.7 6.8 68 2.7 N 11 19 6 10 - - 0.0
28/09:30pm 12.4 9.2 6.7 68 2.7 N 13 22 7 12 - - 0.0
28/09:00pm 12.7 9.5 6.7 67 2.9 NNE 13 24 7 13 - - 0.0
28/08:30pm 12.6 9.4 6.9 68 2.7 NNE 13 20 7 11 - - 0.0
28/08:00pm 12.5 9.2 6.5 67 2.9 NNE 13 24 7 13 - - 0.0
28/07:30pm 12.6 9.7 6.6 67 2.9 NNE 11 17 6 9 - - 0.0
28/07:00pm 12.9 9.6 6.5 65 3.1 NNE 13 22 7 12 - - 0.0
28/06:30pm 13.3 10.0 6.4 63 3.3 N 13 28 7 15 - - 0.0
28/06:00pm 13.9 11.3 6.3 60 3.7 N 9 17 5 9 - - 0.0
28/05:30pm 14.3 11.0 6.4 59 3.8 N 13 26 7 14 - - 0.0
28/05:00pm 14.9 11.6 6.5 57 4.1 N 13 30 7 16 - - 0.0
28/04:30pm 15.5 11.4 6.0 53 4.6 N 17 30 9 16 - - 0.0
28/04:00pm 16.2 11.6 5.8 50 5.0 N 19 39 10 21 - - 0.0
28/03:30pm 16.3 11.5 5.6 49 5.2 N 20 41 11 22 - - 0.0
28/03:00pm 16.7 11.8 5.3 47 5.5 N 20 41 11 22 - - 0.0
28/02:30pm 17.2 12.0 5.5 46 5.7 NNW 22 37 12 20 - - 0.0
28/02:00pm 17.4 12.6 5.7 46 5.7 NNW 20 33 11 18 - - 0.0
28/01:30pm 17.2 12.4 5.5 46 5.7 NNW 20 37 11 20 - - 0.0
28/01:00pm 17.6 14.3 6.2 47 5.6 N 13 22 7 12 - - 0.0
28/12:30pm 16.5 12.1 6.6 52 4.9 N 19 30 10 16 - - 0.0
28/12:00pm 16.6 12.5 6.1 50 5.1 N 17 32 9 17 - - 0.0
28/11:30am 16.1 11.9 5.7 50 5.0 N 17 32 9 17 - - 0.0
28/11:00am 15.2 10.7 6.0 54 4.4 NNE 19 30 10 16 - - 0.0
28/10:30am 14.3 9.7 5.4 55 4.2 NNE 19 30 10 16 - - 0.0
28/10:00am 13.6 8.9 5.3 57 3.9 N 19 32 10 17 - - 0.0
28/09:30am 13.1 10.4 5.8 61 3.5 N 9 20 5 11 - - 0.0
28/09:00am 10.9 7.4 5.4 69 2.5 NNE 13 22 7 12 - - 0.0
28/08:30am 10.8 6.8 5.1 68 2.6 N 15 26 8 14 - - 0.0
28/08:00am 10.4 5.7 5.2 70 2.4 NNE 19 28 10 15 - - 0.0
28/07:30am 10.1 5.8 5.1 71 2.3 NNE 17 28 9 15 - - 0.0
28/07:00am 10.1 5.4 5.1 71 2.3 NNE 19 28 10 15 - - 0.0
28/06:30am 10.1 5.8 5.1 71 2.3 NNE 17 26 9 14 - - 0.0
28/06:00am 10.2 6.3 5.4 72 2.2 NNE 15 24 8 13 - - 0.0
28/05:30am 10.3 6.8 5.3 71 2.3 NNE 13 20 7 11 - - 0.0
28/05:00am 10.5 6.6 5.5 71 2.3 NNE 15 24 8 13 - - 0.0
28/04:30am 10.5 6.7 5.7 72 2.2 NNE 15 26 8 14 - - 0.0
28/04:00am 10.5 6.3 5.9 73 2.1 NNE 17 30 9 16 - - 0.0
28/03:30am 10.5 6.0 6.1 74 2.1 NNE 19 26 10 14 - - 0.0
28/03:00am 10.4 6.3 6.2 75 2.0 NNE 17 28 9 15 - - 0.0
28/02:30am 10.5 6.8 6.5 76 1.9 NNE 15 26 8 14 - - 0.0
28/02:00am 10.5 6.9 6.6 77 1.8 NNE 15 22 8 12 - - 0.0
28/01:30am 10.2 7.0 6.7 79 1.6 NNE 13 20 7 11 - - 0.0
28/01:00am 10.1 7.2 6.6 79 1.6 NNE 11 19 6 10 - - 0.0
28/12:30am 10.2 7.0 6.9 80 1.6 NNE 13 19 7 10 - - 0.0
28/12:00am 10.3 7.5 7.0 80 1.6 NNE 11 17 6 9 - - 0.0
 
Date/Time
EST
Tmp

°C
App
Tmp
°C
Dew
Point
°C
Rel
Hum
%
Delta-T

°C
Wind Press
QNH
hPa
Press
MSL
hPa
Rain
since
9 am
mm
Dir
 
Spd
km/h
Gust
km/h
Spd
kts
Gust
kts
27/11:30pm 10.4 7.7 7.3 81 1.5 NNE 11 17 6 9 - - 0.0
27/11:00pm 10.3 7.9 7.2 81 1.5 NNE 9 15 5 8 - - 0.0
27/10:30pm 10.7 8.3 7.2 79 1.7 NNE 9 15 5 8 - - 0.0
27/10:00pm 11.5 8.8 7.4 76 2.0 N 11 20 6 11 - - 0.0
27/09:30pm 11.1 8.8 7.4 78 1.8 N 9 20 5 11 - - 0.0

Latest Capital City Observations: Canberra | Sydney | Melbourne | Brisbane | Adelaide | Perth | Hobart | Darwin

Other Formats:

Comma delimited format used in spreadsheet applications
http://www.bom.gov.au/fwo/IDV60901/IDV60901.95867.axf

JavaScript Object Notation format (JSON) in row-major order
http://www.bom.gov.au/fwo/IDV60901/IDV60901.95867.json